Time;durP1;ratioP1;P1;durP2;ratioP2;P2;SDS_P1;SDS_P2;PMS_P1;PMS_P2;Temp;Humidity;BMP_temperature;BMP_pressure;BME280_temperature;BME280_humidity;BME280_pressure;Samples;Min_cycle;Max_cycle;Signal;HPM_P1;HPM_P2
2023/06/12 00:02:18;;;;;;;13.30;6.63;;;18.20;99.90;;;;;;4960935;28;20070;-75
2023/06/12 00:04:45;;;;;;;10.98;6.63;;;18.20;99.90;;;;;;4941271;28;20087;-75
2023/06/12 00:07:12;;;;;;;11.13;5.50;;;18.20;99.90;;;;;;4949896;28;20039;-78
2023/06/12 00:09:38;;;;;;;11.32;6.07;;;18.20;99.90;;;;;;4954910;28;20030;-76
2023/06/12 00:12:04;;;;;;;11.45;6.35;;;18.10;99.90;;;;;;4951404;28;20039;-78
2023/06/12 00:14:30;;;;;;;14.23;7.07;;;18.10;99.90;;;;;;4946500;29;20453;-79
2023/06/12 00:16:56;;;;;;;12.52;6.20;;;18.10;99.90;;;;;;4942985;28;20066;-78
2023/06/12 00:19:21;;;;;;;13.48;6.47;;;18.10;99.90;;;;;;4945534;28;20055;-75
2023/06/12 00:21:47;;;;;;;8.98;5.65;;;18.10;99.90;;;;;;4954361;28;20024;-76
2023/06/12 00:24:13;;;;;;;13.52;6.50;;;18.10;99.90;;;;;;4925986;28;20459;-74
2023/06/12 00:26:39;;;;;;;12.60;5.97;;;18.10;99.90;;;;;;4953151;28;20034;-76
2023/06/12 00:29:05;;;;;;;11.43;6.00;;;18.10;99.90;;;;;;4958208;28;20417;-75
2023/06/12 00:31:31;;;;;;;11.07;6.07;;;18.10;99.90;;;;;;4926799;29;20040;-77
2023/06/12 00:33:57;;;;;;;12.07;6.20;;;18.10;99.90;;;;;;4937300;28;20082;-77
2023/06/12 00:36:23;;;;;;;11.10;6.80;;;18.10;99.90;;;;;;4937505;29;20055;-75
2023/06/12 00:38:51;;;;;;;11.45;6.30;;;18.00;99.90;;;;;;4951589;29;20114;-76
2023/06/12 00:41:18;;;;;;;11.88;6.72;;;18.10;99.90;;;;;;4927590;29;20031;-76
2023/06/12 00:43:44;;;;;;;10.85;5.45;;;18.10;99.90;;;;;;4941533;29;20102;-76
2023/06/12 00:46:11;;;;;;;12.45;6.55;;;18.10;99.90;;;;;;4926366;29;20455;-74
2023/06/12 00:48:38;;;;;;;10.80;6.43;;;18.10;99.90;;;;;;4930012;29;20068;-76
2023/06/12 00:51:08;;;;;;;13.18;6.45;;;18.10;99.90;;;;;;4945933;29;20371;-75
2023/06/12 00:53:35;;;;;;;22.73;6.78;;;18.10;99.90;;;;;;4927976;29;20553;-77
2023/06/12 00:56:02;;;;;;;14.55;6.38;;;18.10;99.90;;;;;;4940993;29;20082;-76
2023/06/12 00:58:28;;;;;;;14.07;6.00;;;18.10;99.90;;;;;;4904611;29;20047;-75
2023/06/12 01:00:57;;;;;;;10.68;6.25;;;18.10;99.90;;;;;;4953274;28;20027;-74
2023/06/12 01:03:24;;;;;;;18.08;6.30;;;18.10;99.90;;;;;;4936923;29;20063;-75
2023/06/12 01:05:52;;;;;;;12.60;6.30;;;18.10;99.90;;;;;;4939337;29;20535;-75
2023/06/12 01:08:53;;;;;;;10.10;5.60;;;18.10;99.90;;;;;;4936727;29;20065;-76
2023/06/12 01:11:20;;;;;;;10.57;5.30;;;18.10;99.90;;;;;;4935393;29;20032;-74
2023/06/12 01:13:46;;;;;;;10.32;5.80;;;18.00;99.90;;;;;;4936153;29;20034;-77
2023/06/12 01:16:12;;;;;;;11.90;5.78;;;18.10;99.90;;;;;;4953139;28;20403;-76
2023/06/12 01:18:37;;;;;;;11.57;5.57;;;18.10;99.90;;;;;;4936030;29;20035;-76
2023/06/12 01:21:12;;;;;;;10.80;6.03;;;18.10;99.90;;;;;;4936414;28;20039;-74
2023/06/12 01:23:39;;;;;;;8.85;5.05;;;18.10;99.90;;;;;;4936474;29;20028;-75
2023/06/12 01:26:26;;;;;;;10.40;5.65;;;18.00;99.90;;;;;;4935869;28;20451;-76
2023/06/12 01:29:08;;;;;;;12.98;5.75;;;18.10;99.90;;;;;;4927407;29;20035;-75
2023/06/12 01:31:56;;;;;;;;;;;18.00;99.90;;;;;;4942598;28;20051;-76
2023/06/12 01:34:28;;;;;;;11.35;5.97;;;18.10;99.90;;;;;;4952187;28;19914;-78
2023/06/12 01:37:37;;;;;;;12.63;5.72;;;18.00;99.90;;;;;;4936742;29;20028;-77
2023/06/12 01:40:10;;;;;;;11.10;5.60;;;18.00;99.90;;;;;;4936245;29;20050;-75
2023/06/12 01:42:37;;;;;;;13.57;6.13;;;18.00;99.90;;;;;;4932268;29;20472;-75
2023/06/12 01:45:03;;;;;;;11.27;6.25;;;18.10;99.90;;;;;;4935834;29;20044;-75
2023/06/12 01:47:29;;;;;;;9.88;5.60;;;18.10;99.90;;;;;;4932861;29;20032;-76
2023/06/12 01:49:57;;;;;;;8.82;4.85;;;18.10;99.90;;;;;;4936876;29;20031;-76
2023/06/12 01:52:23;;;;;;;9.27;4.78;;;18.10;99.90;;;;;;4935011;29;20034;-76
2023/06/12 01:54:49;;;;;;;7.82;5.20;;;18.10;99.90;;;;;;4918936;29;20039;-75
2023/06/12 01:57:21;;;;;;;10.40;5.43;;;18.10;99.90;;;;;;4934398;29;20079;-76
2023/06/12 01:59:48;;;;;;;13.10;6.50;;;18.10;99.90;;;;;;4918254;29;20034;-76
2023/06/12 02:02:16;;;;;;;11.60;5.50;;;18.10;99.90;;;;;;4937247;29;20040;-76
2023/06/12 02:04:42;;;;;;;13.43;5.53;;;18.10;99.90;;;;;;4934211;29;20028;-77
2023/06/12 02:07:08;;;;;;;9.63;5.47;;;18.10;99.90;;;;;;4918703;29;20480;-77
2023/06/12 02:09:34;;;;;;;16.38;5.93;;;18.10;99.90;;;;;;4918244;29;20480;-77
2023/06/12 02:12:01;;;;;;;9.20;5.55;;;18.00;99.90;;;;;;4918243;29;20024;-76
2023/06/12 02:14:27;;;;;;;11.70;4.75;;;18.10;99.90;;;;;;4933835;29;20030;-78
2023/06/12 02:16:53;;;;;;;11.63;4.70;;;18.00;99.90;;;;;;4936924;28;20492;-77
2023/06/12 02:19:25;;;;;;;11.88;5.15;;;18.10;99.90;;;;;;4934923;29;20027;-78
2023/06/12 02:21:56;;;;;;;10.55;4.85;;;18.10;99.90;;;;;;4934827;29;20036;-78
2023/06/12 02:24:26;;;;;;;11.18;5.05;;;18.10;99.90;;;;;;4931316;29;20023;-77
2023/06/12 02:26:52;;;;;;;10.07;4.93;;;18.10;99.90;;;;;;4935668;29;20019;-77
2023/06/12 02:29:18;;;;;;;12.18;5.47;;;18.10;99.90;;;;;;4936082;29;20032;-76
2023/06/12 02:31:49;;;;;;;9.63;4.72;;;18.10;99.90;;;;;;4918654;29;20046;-77
2023/06/12 02:34:15;;;;;;;10.25;4.85;;;18.10;99.90;;;;;;4918828;29;20031;-75
2023/06/12 02:36:46;;;;;;;7.82;5.13;;;18.20;99.90;;;;;;4937838;29;20095;-76
2023/06/12 02:39:17;;;;;;;9.57;5.20;;;18.20;99.90;;;;;;4934489;29;20023;-76
2023/06/12 02:41:46;;;;;;;11.48;5.05;;;18.20;99.90;;;;;;4918756;29;20032;-75
2023/06/12 02:44:13;;;;;;;12.05;4.82;;;18.10;99.90;;;;;;4902122;29;20059;-77
2023/06/12 02:46:54;;;;;;;9.75;5.25;;;18.20;99.90;;;;;;4939507;29;20027;-75
2023/06/12 02:49:24;;;;;;;10.48;4.88;;;18.20;99.90;;;;;;4918666;29;20047;-75
2023/06/12 02:51:50;;;;;;;12.65;5.03;;;18.10;99.90;;;;;;4935595;29;20030;-75
2023/06/12 02:54:18;;;;;;;9.30;4.88;;;18.10;99.90;;;;;;4934903;29;20486;-76
2023/06/12 02:56:47;;;;;;;11.48;5.15;;;18.10;99.90;;;;;;4917466;29;20506;-76
2023/06/12 02:59:22;;;;;;;10.52;4.57;;;18.10;99.90;;;;;;4933882;29;20036;-75
2023/06/12 03:01:48;;;;;;;12.48;5.43;;;18.00;99.90;;;;;;4918304;29;20527;-76
2023/06/12 03:04:32;;;;;;;17.60;5.47;;;18.00;99.90;;;;;;4918111;29;20123;-75
2023/06/12 03:07:02;;;;;;;8.43;4.93;;;18.00;99.90;;;;;;4933919;29;20043;-75
2023/06/12 03:09:28;;;;;;;10.13;4.88;;;18.10;99.90;;;;;;4934414;29;20027;-76
2023/06/12 03:11:54;;;;;;;17.10;6.07;;;18.00;99.90;;;;;;4933158;29;20031;-75
2023/06/12 03:14:21;;;;;;;12.02;5.72;;;18.10;99.90;;;;;;4934409;29;20071;-76
2023/06/12 03:16:50;;;;;;;14.93;4.88;;;18.10;99.90;;;;;;4934481;28;20024;-75
2023/06/12 03:19:17;;;;;;;12.52;5.55;;;18.20;99.90;;;;;;4934359;29;20067;-76
2023/06/12 03:21:44;;;;;;;6.53;4.13;;;18.20;99.90;;;;;;4917993;29;20020;-77
2023/06/12 03:24:10;;;;;;;13.43;4.97;;;18.20;99.90;;;;;;4917919;29;20042;-76
2023/06/12 03:26:38;;;;;;;8.93;4.50;;;18.20;99.90;;;;;;4933557;29;20111;-75
2023/06/12 03:29:05;;;;;;;8.73;5.15;;;18.20;99.90;;;;;;4917882;29;20038;-75
2023/06/12 03:31:31;;;;;;;12.38;5.65;;;18.20;99.90;;;;;;4917188;29;20048;-75
2023/06/12 03:33:59;;;;;;;10.52;5.22;;;18.20;99.90;;;;;;4916737;29;20522;-75
2023/06/12 03:36:25;;;;;;;9.68;5.03;;;18.20;99.90;;;;;;4901814;29;20044;-76
2023/06/12 03:38:53;;;;;;;9.85;5.05;;;18.20;99.90;;;;;;4921331;29;20028;-75
2023/06/12 03:41:21;;;;;;;9.40;4.45;;;18.20;99.90;;;;;;4902923;29;20692;-75
2023/06/12 03:43:48;;;;;;;10.68;4.60;;;18.20;99.90;;;;;;4933566;29;20063;-75
2023/06/12 03:46:14;;;;;;;7.78;4.05;;;18.20;99.90;;;;;;4936940;29;20028;-78
2023/06/12 03:48:41;;;;;;;10.40;4.75;;;18.20;99.90;;;;;;4917380;29;20078;-76
2023/06/12 03:51:06;;;;;;;11.98;5.32;;;18.20;99.90;;;;;;4936482;29;20031;-76
2023/06/12 03:53:32;;;;;;;6.60;4.07;;;18.30;99.90;;;;;;4901131;29;20046;-75
2023/06/12 03:55:59;;;;;;;6.60;3.90;;;18.30;99.90;;;;;;4933148;29;20050;-76
2023/06/12 03:58:26;;;;;;;6.63;3.92;;;18.40;99.90;;;;;;4933294;29;20027;-75
2023/06/12 04:00:52;;;;;;;7.05;4.18;;;18.40;99.90;;;;;;4932726;29;20016;-75
2023/06/12 04:03:21;;;;;;;9.68;4.40;;;18.40;99.90;;;;;;4935918;29;20036;-77
2023/06/12 04:05:48;;;;;;;9.52;4.35;;;18.40;99.90;;;;;;4933666;28;20031;-78
2023/06/12 04:08:14;;;;;;;13.23;4.10;;;18.30;99.90;;;;;;4937830;29;20035;-76
2023/06/12 04:10:40;;;;;;;12.15;4.13;;;18.40;99.90;;;;;;4936809;28;20051;-77
2023/06/12 04:13:06;;;;;;;9.32;4.50;;;18.30;99.90;;;;;;4954745;28;20035;-78
2023/06/12 04:15:32;;;;;;;8.48;3.78;;;18.30;99.90;;;;;;4936947;29;20069;-77
2023/06/12 04:17:58;;;;;;;11.73;4.78;;;18.30;99.90;;;;;;4954442;28;20483;-75
2023/06/12 04:20:26;;;;;;;13.18;4.70;;;18.30;99.90;;;;;;4954069;28;20051;-76
2023/06/12 04:22:56;;;;;;;7.28;4.05;;;18.30;99.90;;;;;;4929092;29;20038;-75
2023/06/12 04:25:25;;;;;;;6.90;3.55;;;18.40;99.90;;;;;;4954388;28;20360;-77
2023/06/12 04:27:51;;;;;;;8.50;4.30;;;18.40;99.90;;;;;;4936585;29;20039;-76
2023/06/12 04:30:21;;;;;;;11.25;3.95;;;18.40;99.90;;;;;;4935917;28;20035;-75
2023/06/12 04:32:48;;;;;;;8.77;3.35;;;18.40;99.90;;;;;;4936977;29;20081;-75
2023/06/12 04:35:19;;;;;;;11.98;4.15;;;18.50;99.90;;;;;;4936993;28;20046;-76
2023/06/12 04:37:48;;;;;;;6.47;3.33;;;18.50;99.90;;;;;;4937066;29;20027;-77
2023/06/12 04:40:17;;;;;;;9.50;3.97;;;18.60;99.90;;;;;;4952853;28;20031;-76
2023/06/12 04:42:43;;;;;;;7.07;4.07;;;18.50;99.90;;;;;;4937083;29;20069;-75
2023/06/12 04:45:12;;;;;;;6.65;3.22;;;18.50;99.90;;;;;;4937039;29;21334;-76
2023/06/12 04:47:40;;;;;;;7.70;2.67;;;18.40;99.90;;;;;;4937046;29;20027;-76
2023/06/12 04:50:09;;;;;;;6.22;2.72;;;18.30;99.90;;;;;;4936612;29;20027;-76
2023/06/12 04:52:36;;;;;;;5.85;2.97;;;18.20;99.90;;;;;;4936769;29;20027;-77
2023/06/12 04:55:03;;;;;;;6.80;2.92;;;18.20;99.90;;;;;;4936217;29;20067;-76
2023/06/12 04:57:29;;;;;;;5.70;2.53;;;18.20;99.90;;;;;;4936229;29;20403;-76
2023/06/12 04:59:56;;;;;;;10.85;2.50;;;18.10;99.90;;;;;;4936554;29;20038;-76
2023/06/12 05:02:21;;;;;;;4.95;2.30;;;18.10;99.90;;;;;;4936699;29;20031;-76
2023/06/12 05:04:47;;;;;;;6.28;2.25;;;18.10;99.90;;;;;;4936588;29;20035;-76
2023/06/12 05:07:16;;;;;;;7.93;2.30;;;18.00;99.90;;;;;;4936604;29;20034;-76
2023/06/12 05:09:45;;;;;;;5.50;2.08;;;18.00;99.90;;;;;;4936832;29;20028;-75
2023/06/12 05:12:11;;;;;;;6.70;2.63;;;17.90;99.90;;;;;;4953578;28;20490;-76
2023/06/12 05:14:43;;;;;;;6.57;2.55;;;17.90;99.90;;;;;;4936369;29;20038;-76
2023/06/12 05:17:09;;;;;;;8.93;2.83;;;17.90;99.90;;;;;;4954255;28;20057;-75
2023/06/12 05:19:38;;;;;;;3.25;2.10;;;17.80;99.90;;;;;;4953611;28;20067;-76
2023/06/12 05:22:04;;;;;;;5.70;2.42;;;17.70;99.90;;;;;;4937275;29;20070;-76
2023/06/12 05:24:32;;;;;;;4.95;2.10;;;17.70;99.90;;;;;;4940316;29;20463;-75
2023/06/12 05:26:58;;;;;;;7.05;2.45;;;17.60;99.90;;;;;;4940522;29;20086;-75
2023/06/12 05:29:26;;;;;;;4.40;2.53;;;17.60;99.90;;;;;;4939999;29;20090;-76
2023/06/12 05:31:52;;;;;;;7.18;2.45;;;17.50;99.90;;;;;;4957510;28;20051;-78
2023/06/12 05:34:18;;;;;;;4.45;2.63;;;17.50;99.90;;;;;;4940012;29;20034;-76
2023/06/12 05:36:44;;;;;;;5.43;3.10;;;17.50;99.90;;;;;;4940123;29;20035;-76
2023/06/12 05:39:10;;;;;;;5.32;2.45;;;17.40;99.90;;;;;;4939898;29;20534;-76
2023/06/12 05:41:36;;;;;;;5.10;2.30;;;17.40;99.90;;;;;;4940029;29;20035;-76
2023/06/12 05:44:07;;;;;;;6.13;2.65;;;17.40;99.90;;;;;;4939913;29;20027;-76
2023/06/12 05:46:34;;;;;;;4.88;2.83;;;17.30;99.90;;;;;;4957170;28;20496;-76
2023/06/12 05:49:00;;;;;;;7.03;2.78;;;17.40;99.90;;;;;;4938489;29;20043;-76
2023/06/12 05:51:27;;;;;;;5.90;2.78;;;17.40;99.90;;;;;;4930771;29;20098;-77
2023/06/12 05:53:54;;;;;;;9.02;3.25;;;17.40;99.90;;;;;;4936407;29;20058;-76
2023/06/12 05:56:23;;;;;;;5.28;2.85;;;17.40;99.90;;;;;;4939078;29;20073;-76
2023/06/12 05:58:49;;;;;;;5.28;2.95;;;17.50;99.90;;;;;;4936239;29;20028;-76
2023/06/12 06:01:21;;;;;;;4.32;2.95;;;17.50;99.90;;;;;;4939307;28;20039;-76
2023/06/12 06:03:55;;;;;;;8.25;4.30;;;17.50;99.90;;;;;;4939417;29;20031;-76
2023/06/12 06:06:21;;;;;;;5.20;2.63;;;17.50;99.90;;;;;;4924071;28;20031;-76
2023/06/12 06:08:48;;;;;;;14.30;3.85;;;17.60;99.90;;;;;;4939448;29;20035;-76
2023/06/12 06:11:14;;;;;;;4.35;2.70;;;17.50;99.90;;;;;;4938944;29;20023;-75
2023/06/12 06:13:42;;;;;;;5.97;3.42;;;17.50;99.90;;;;;;4939180;29;20054;-76
2023/06/12 06:16:10;;;;;;;10.48;2.88;;;17.50;99.90;;;;;;4923357;28;20403;-76
2023/06/12 06:18:38;;;;;;;3.20;2.53;;;17.60;99.90;;;;;;4939682;29;20027;-76
2023/06/12 06:21:04;;;;;;;6.22;3.05;;;17.70;99.90;;;;;;4939457;28;20126;-76
2023/06/12 06:23:32;;;;;;;10.40;3.47;;;17.60;99.90;;;;;;4938741;29;20031;-76
2023/06/12 06:25:58;;;;;;;5.22;2.58;;;17.60;99.90;;;;;;4937908;28;20126;-76
2023/06/12 06:28:24;;;;;;;11.88;2.63;;;17.70;99.90;;;;;;4923549;29;20135;-76
2023/06/12 06:30:50;;;;;;;4.18;2.50;;;17.80;99.90;;;;;;4939008;28;20047;-76
2023/06/12 06:33:16;;;;;;;9.05;2.80;;;17.90;99.90;;;;;;4938499;29;20058;-76
2023/06/12 06:35:43;;;;;;;7.20;2.65;;;18.00;99.90;;;;;;4956096;28;20484;-75
2023/06/12 06:38:09;;;;;;;6.30;3.25;;;18.10;99.90;;;;;;4938308;29;20031;-74
2023/06/12 06:40:35;;;;;;;5.38;3.10;;;18.20;99.90;;;;;;4939499;29;20054;-77
2023/06/12 06:43:01;;;;;;;9.82;3.47;;;18.20;99.90;;;;;;4938491;29;20054;-74
2023/06/12 06:45:40;;;;;;;4.00;2.75;;;18.30;99.90;;;;;;4935931;29;20091;-75
2023/06/12 06:48:08;;;;;;;5.50;3.42;;;18.30;99.90;;;;;;4954299;28;20059;-75
2023/06/12 06:50:34;;;;;;;6.15;2.67;;;18.30;99.90;;;;;;4939092;29;20034;-75
2023/06/12 06:53:02;;;;;;;4.85;2.67;;;18.30;99.90;;;;;;4922604;29;20074;-75
2023/06/12 06:55:28;;;;;;;6.05;2.72;;;18.30;99.90;;;;;;4938261;29;20055;-75
2023/06/12 06:57:57;;;;;;;5.68;3.42;;;18.30;99.90;;;;;;4953538;28;20027;-76
2023/06/12 07:00:23;;;;;;;6.43;3.10;;;18.30;99.90;;;;;;4938690;29;20027;-76
2023/06/12 07:02:49;;;;;;;6.97;3.30;;;18.30;99.90;;;;;;4938722;29;20035;-75
2023/06/12 07:05:18;;;;;;;7.93;3.80;;;18.20;99.90;;;;;;4952368;28;20039;-75
2023/06/12 07:07:47;;;;;;;9.68;4.18;;;18.20;99.90;;;;;;4938519;29;20024;-76
2023/06/12 07:10:13;;;;;;;12.98;3.90;;;18.00;99.90;;;;;;4938245;29;20122;-75
2023/06/12 07:12:39;;;;;;;6.65;3.85;;;18.00;99.90;;;;;;4950829;28;20053;-75
2023/06/12 07:15:06;;;;;;;8.27;3.65;;;17.80;99.90;;;;;;4938206;29;20514;-78
2023/06/12 07:17:33;;;;;;;8.05;4.22;;;17.80;99.90;;;;;;4938583;29;20028;-74
2023/06/12 07:19:58;;;;;;;6.22;2.97;;;17.70;99.90;;;;;;4934905;29;20086;-75
2023/06/12 07:22:27;;;;;;;5.55;3.47;;;17.70;99.90;;;;;;4947835;28;20089;-74
2023/06/12 07:24:53;;;;;;;11.15;4.30;;;17.70;99.90;;;;;;4938465;29;20019;-77
2023/06/12 07:27:19;;;;;;;8.00;3.90;;;17.70;99.90;;;;;;4937735;28;20032;-75
2023/06/12 07:29:45;;;;;;;9.88;5.25;;;17.80;99.90;;;;;;4955539;28;20015;-75
2023/06/12 07:32:11;;;;;;;8.55;3.88;;;17.80;99.90;;;;;;4937634;29;20059;-75
2023/06/12 07:34:38;;;;;;;13.88;8.60;;;17.70;99.90;;;;;;4938222;29;20023;-75
2023/06/12 07:37:04;;;;;;;15.25;7.13;;;17.80;99.90;;;;;;4932634;29;20174;-75
2023/06/12 07:39:30;;;;;;;14.60;4.40;;;17.80;99.90;;;;;;4937475;29;20031;-74
2023/06/12 07:41:59;;;;;;;6.25;4.68;;;17.80;99.90;;;;;;4937961;28;20519;-74
2023/06/12 07:44:25;;;;;;;12.50;4.60;;;17.80;99.90;;;;;;4936629;29;20352;-74
2023/06/12 07:46:52;;;;;;;5.80;4.28;;;17.80;99.90;;;;;;4937704;28;20554;-75
2023/06/12 07:49:18;;;;;;;10.25;4.80;;;17.80;99.90;;;;;;4954474;28;20099;-75
2023/06/12 07:51:45;;;;;;;7.70;4.45;;;17.90;99.90;;;;;;4937440;29;20023;-75
2023/06/12 07:54:14;;;;;;;9.70;4.50;;;17.70;99.90;;;;;;4937152;29;20039;-75
2023/06/12 07:56:40;;;;;;;9.52;4.20;;;17.80;99.90;;;;;;4954654;28;20039;-74
2023/06/12 07:59:10;;;;;;;9.13;3.97;;;17.70;99.90;;;;;;4936934;29;20395;-75
2023/06/12 08:01:40;;;;;;;10.25;4.07;;;17.70;99.90;;;;;;4936371;29;20036;-75
2023/06/12 08:04:11;;;;;;;7.72;4.40;;;17.70;99.90;;;;;;4937818;29;20031;-74
2023/06/12 08:06:40;;;;;;;13.73;5.40;;;17.70;99.90;;;;;;4937410;28;20387;-75
2023/06/12 08:09:09;;;;;;;8.93;4.32;;;17.70;99.90;;;;;;4937482;29;20031;-74
2023/06/12 08:11:35;;;;;;;7.78;4.03;;;17.70;99.90;;;;;;4953900;28;20047;-75
2023/06/12 08:14:02;;;;;;;9.00;4.15;;;17.70;99.90;;;;;;4936937;29;20057;-74
2023/06/12 08:16:32;;;;;;;16.02;5.22;;;17.70;99.90;;;;;;4931965;29;20517;-74
2023/06/12 08:18:58;;;;;;;6.25;4.07;;;17.70;99.90;;;;;;4937361;29;20027;-74
2023/06/12 08:21:26;;;;;;;8.90;4.07;;;17.70;99.90;;;;;;4937354;29;20027;-74
2023/06/12 08:23:52;;;;;;;10.35;5.18;;;17.80;99.90;;;;;;4936976;29;20027;-74
2023/06/12 08:26:19;;;;;;;11.23;5.18;;;17.80;99.90;;;;;;4937220;29;20081;-74
2023/06/12 08:28:49;;;;;;;16.42;5.00;;;17.70;99.90;;;;;;4936744;29;20090;-75
2023/06/12 08:31:16;;;;;;;11.15;5.88;;;17.60;99.90;;;;;;4920637;29;20047;-74
2023/06/12 08:33:42;;;;;;;9.88;5.55;;;17.70;99.90;;;;;;4936876;29;20395;-74
2023/06/12 08:36:07;;;;;;;11.63;5.13;;;17.70;99.90;;;;;;4937082;29;20089;-75
2023/06/12 08:38:33;;;;;;;13.77;5.55;;;17.70;99.90;;;;;;4936915;29;20055;-75
2023/06/12 08:41:02;;;;;;;14.30;7.03;;;17.70;99.90;;;;;;4936729;29;20046;-76
2023/06/12 08:43:32;;;;;;;10.50;5.10;;;17.70;99.90;;;;;;4937061;29;20480;-75
2023/06/12 08:46:03;;;;;;;10.00;4.93;;;17.80;99.90;;;;;;4936725;29;20118;-75
2023/06/12 08:48:29;;;;;;;9.88;5.25;;;17.80;99.90;;;;;;4954254;28;20030;-74
2023/06/12 08:50:55;;;;;;;9.73;4.95;;;17.90;99.90;;;;;;4936563;29;20031;-75
2023/06/12 08:53:22;;;;;;;11.10;5.35;;;17.90;99.90;;;;;;4953510;28;20027;-76
2023/06/12 08:55:50;;;;;;;11.02;5.10;;;18.00;99.90;;;;;;4951622;28;20383;-74
2023/06/12 08:58:16;;;;;;;9.90;4.28;;;18.00;99.90;;;;;;4953905;28;20106;-76
2023/06/12 09:00:41;;;;;;;8.93;4.80;;;18.10;99.90;;;;;;4954039;28;20102;-75
2023/06/12 09:03:08;;;;;;;16.90;4.60;;;18.20;99.90;;;;;;4953733;28;20032;-75
2023/06/12 09:05:39;;;;;;;7.97;4.35;;;18.10;99.90;;;;;;4954059;28;20046;-75
2023/06/12 09:08:06;;;;;;;6.05;3.80;;;18.00;99.90;;;;;;4953432;28;20039;-76
2023/06/12 09:10:33;;;;;;;7.50;4.35;;;18.20;99.90;;;;;;4954049;28;20031;-76
2023/06/12 09:12:59;;;;;;;10.15;4.55;;;18.10;99.90;;;;;;4936542;28;20483;-76
2023/06/12 09:15:26;;;;;;;7.47;4.60;;;18.20;99.90;;;;;;4953823;28;20062;-76
2023/06/12 09:17:53;;;;;;;7.15;4.20;;;18.20;99.90;;;;;;4953382;28;20037;-76
2023/06/12 09:20:29;;;;;;;7.40;4.20;;;18.30;99.90;;;;;;4953854;28;20028;-75
2023/06/12 09:23:04;;;;;;;7.85;4.03;;;18.40;99.90;;;;;;4953665;28;20464;-75
2023/06/12 09:25:39;;;;;;;6.68;3.80;;;18.60;99.90;;;;;;4953508;28;20035;-76
2023/06/12 09:28:08;;;;;;;7.07;4.15;;;18.60;99.90;;;;;;4947571;28;20098;-74
2023/06/12 09:30:41;;;;;;;6.63;4.53;;;18.60;99.90;;;;;;4953388;28;20075;-75
2023/06/12 09:33:08;;;;;;;7.18;4.10;;;18.50;99.90;;;;;;4953333;28;20039;-76
2023/06/12 09:35:50;;;;;;;9.15;4.88;;;18.60;99.90;;;;;;4936136;29;20407;-76
2023/06/12 09:38:16;;;;;;;5.80;3.45;;;18.70;99.90;;;;;;4953071;29;20045;-75
2023/06/12 09:40:41;;;;;;;7.28;4.07;;;18.70;99.90;;;;;;4953660;28;20106;-75
2023/06/12 09:43:07;;;;;;;7.53;4.00;;;18.70;99.90;;;;;;4953222;28;20027;-75
2023/06/12 09:45:33;;;;;;;8.45;4.82;;;18.60;99.90;;;;;;4953142;28;20031;-74
2023/06/12 09:47:59;;;;;;;9.10;4.15;;;18.50;99.90;;;;;;4940943;28;20027;-75
2023/06/12 09:50:25;;;;;;;6.75;4.38;;;18.50;99.90;;;;;;4953141;28;20020;-74
2023/06/12 09:52:54;;;;;;;6.90;4.40;;;18.50;99.90;;;;;;4947652;28;20024;-74
2023/06/12 09:55:24;;;;;;;10.43;4.80;;;18.40;99.90;;;;;;4952823;28;20050;-76
2023/06/12 09:57:52;;;;;;;10.57;5.47;;;18.50;99.90;;;;;;4953385;28;20030;-74
2023/06/12 10:00:19;;;;;;;6.45;4.45;;;18.60;99.90;;;;;;4936128;28;20032;-75
2023/06/12 10:03:00;;;;;;;7.95;4.88;;;18.70;99.90;;;;;;4953344;28;20024;-74
2023/06/12 10:05:53;;;;;;;11.18;5.10;;;18.60;99.90;;;;;;4935932;29;20390;-75
2023/06/12 10:08:19;;;;;;;7.93;4.65;;;18.70;99.90;;;;;;4934268;28;20039;-74
2023/06/12 10:10:48;;;;;;;10.50;4.70;;;18.70;99.90;;;;;;4955954;28;20475;-75
2023/06/12 10:13:14;;;;;;;7.53;4.35;;;18.70;99.90;;;;;;4939620;28;20041;-74
2023/06/12 10:15:40;;;;;;;11.00;5.05;;;18.70;99.90;;;;;;4956549;28;20031;-75
2023/06/12 10:18:09;;;;;;;11.65;4.88;;;18.70;99.90;;;;;;4939318;29;20563;-75
2023/06/12 10:20:36;;;;;;;8.75;5.20;;;18.80;99.90;;;;;;4956377;28;20438;-74
2023/06/12 10:23:03;;;;;;;10.57;5.10;;;18.80;99.90;;;;;;4939554;29;20063;-75
2023/06/12 10:25:30;;;;;;;6.57;4.65;;;18.80;99.90;;;;;;4956648;28;20027;-74
2023/06/12 10:27:57;;;;;;;8.77;5.35;;;18.90;99.90;;;;;;4956512;28;20020;-75
2023/06/12 10:30:22;;;;;;;9.30;5.00;;;18.80;99.90;;;;;;4956167;28;20082;-74
2023/06/12 10:32:48;;;;;;;9.63;5.30;;;18.90;99.90;;;;;;4956414;28;20494;-76
2023/06/12 10:35:29;;;;;;;7.93;5.15;;;19.00;99.90;;;;;;4939155;29;20384;-77
2023/06/12 10:37:55;;;;;;;8.18;5.40;;;19.20;99.90;;;;;;4938754;28;20075;-75
2023/06/12 10:40:23;;;;;;;9.10;5.28;;;19.30;99.90;;;;;;4956547;28;20502;-76
2023/06/12 10:42:54;;;;;;;7.97;5.28;;;19.30;99.90;;;;;;4955709;28;20081;-76
2023/06/12 10:45:28;;;;;;;9.02;5.07;;;19.40;99.90;;;;;;4955738;29;20081;-76
2023/06/12 10:48:06;;;;;;;6.05;4.55;;;19.30;99.90;;;;;;4956026;28;20379;-75
2023/06/12 10:50:36;;;;;;;7.82;4.85;;;19.40;99.90;;;;;;4956164;28;20121;-76
2023/06/12 10:53:04;;;;;;;8.38;5.10;;;19.40;99.90;;;;;;4956242;28;20042;-75
2023/06/12 10:55:32;;;;;;;6.20;4.95;;;19.50;99.90;;;;;;4955575;29;20137;-75
2023/06/12 10:58:00;;;;;;;6.13;4.50;;;19.30;99.90;;;;;;4956184;28;20027;-75
2023/06/12 11:00:31;;;;;;;7.65;5.50;;;19.30;99.90;;;;;;4938230;29;20491;-75
2023/06/12 11:03:05;;;;;;;5.32;4.57;;;19.20;99.90;;;;;;4953818;28;20027;-76
2023/06/12 11:05:32;;;;;;;6.03;4.93;;;19.20;99.90;;;;;;4955867;28;20074;-74
2023/06/12 11:08:03;;;;;;;10.10;4.75;;;19.30;99.90;;;;;;4955706;28;20027;-74
2023/06/12 11:10:30;;;;;;;7.80;5.07;;;19.30;99.90;;;;;;4955812;28;20504;-75
2023/06/12 11:12:57;;;;;;;7.75;4.97;;;19.20;99.90;;;;;;4947052;28;20024;-74
2023/06/12 11:15:23;;;;;;;6.53;4.57;;;19.30;99.90;;;;;;4951546;28;20130;-74
2023/06/12 11:17:50;;;;;;;8.18;5.00;;;19.40;99.90;;;;;;4945673;28;20118;-74
2023/06/12 11:20:19;;;;;;;10.20;5.40;;;19.40;99.90;;;;;;4955556;28;20442;-75
2023/06/12 11:22:49;;;;;;;8.98;5.45;;;19.50;99.90;;;;;;4955603;28;20349;-75
2023/06/12 11:25:18;;;;;;;9.05;4.60;;;19.50;99.90;;;;;;4955509;28;20023;-75
2023/06/12 11:27:44;;;;;;;8.50;4.40;;;19.50;99.90;;;;;;4953745;28;20041;-75
2023/06/12 11:30:12;;;;;;;11.27;4.93;;;19.60;99.90;;;;;;4947112;29;20110;-74
2023/06/12 11:32:38;;;;;;;9.75;5.43;;;19.60;99.90;;;;;;4950155;28;20499;-75
2023/06/12 11:35:09;;;;;;;10.00;5.85;;;19.50;99.90;;;;;;4945645;29;20073;-74
2023/06/12 11:37:39;;;;;;;9.48;5.30;;;19.50;99.90;;;;;;4937385;29;20047;-74
2023/06/12 11:40:11;;;;;;;7.50;5.53;;;19.50;99.90;;;;;;4939455;29;20519;-74
2023/06/12 11:42:39;;;;;;;15.50;5.53;;;19.50;99.90;;;;;;4925504;29;20035;-73
2023/06/12 11:45:13;;;;;;;8.35;5.53;;;19.50;99.90;;;;;;4942787;28;20055;-75
2023/06/12 11:47:41;;;;;;;9.25;6.00;;;19.60;99.90;;;;;;4955183;28;20039;-77
2023/06/12 11:50:10;;;;;;;8.52;5.32;;;19.40;99.90;;;;;;4929394;29;20685;-76
2023/06/12 11:52:38;;;;;;;8.82;5.28;;;19.50;99.90;;;;;;4954866;28;20039;-75
2023/06/12 11:55:10;;;;;;;10.32;5.68;;;19.50;99.90;;;;;;4954849;28;20091;-75
2023/06/12 11:57:36;;;;;;;11.43;6.22;;;19.60;99.90;;;;;;4931275;29;20034;-74
2023/06/12 12:00:13;;;;;;;9.88;6.18;;;19.50;99.90;;;;;;4934764;29;20384;-74
2023/06/12 12:02:44;;;;;;;8.05;5.43;;;19.50;99.90;;;;;;4944540;29;20043;-76
2023/06/12 12:05:11;;;;;;;7.90;5.40;;;19.50;99.90;;;;;;4954902;28;20394;-76
2023/06/12 12:07:39;;;;;;;8.63;5.43;;;19.60;99.90;;;;;;4954632;28;20034;-76
2023/06/12 12:10:12;;;;;;;8.75;5.90;;;19.60;99.90;;;;;;4954127;28;20562;-77
2023/06/12 12:12:49;;;;;;;7.25;5.07;;;19.60;99.90;;;;;;4954551;28;20570;-75
2023/06/12 12:15:17;;;;;;;10.48;5.60;;;19.70;99.90;;;;;;4935981;29;20491;-75
2023/06/12 12:17:44;;;;;;;9.00;5.22;;;19.70;99.90;;;;;;4942184;28;20388;-76
2023/06/12 12:20:14;;;;;;;11.32;5.07;;;19.70;99.90;;;;;;4933630;29;20054;-75
2023/06/12 12:22:48;;;;;;;8.05;4.47;;;19.60;99.90;;;;;;4935087;29;20436;-77
2023/06/12 12:25:21;;;;;;;6.75;5.25;;;19.70;99.90;;;;;;4947317;28;20406;-75
2023/06/12 12:27:51;;;;;;;6.50;5.00;;;19.70;99.90;;;;;;4942253;29;20026;-75
2023/06/12 12:30:19;;;;;;;7.90;5.15;;;19.70;99.90;;;;;;4933926;28;20110;-75
2023/06/12 12:32:46;;;;;;;7.63;4.97;;;19.70;99.90;;;;;;4934260;29;20046;-74
2023/06/12 12:35:14;;;;;;;8.60;5.28;;;19.80;99.90;;;;;;4934021;29;20087;-76
2023/06/12 12:37:41;;;;;;;7.72;4.82;;;19.80;99.90;;;;;;4933877;29;20054;-75
2023/06/12 12:40:11;;;;;;;7.78;4.80;;;19.80;99.90;;;;;;4941920;28;20031;-75
2023/06/12 12:42:38;;;;;;;7.63;4.53;;;19.80;99.90;;;;;;4937215;29;20035;-75
2023/06/12 12:45:05;;;;;;;7.43;4.43;;;19.80;99.90;;;;;;4953653;28;20378;-75
2023/06/12 12:47:32;;;;;;;6.68;3.90;;;19.70;99.90;;;;;;4953632;28;20046;-76
2023/06/12 12:49:58;;;;;;;5.85;3.83;;;19.70;99.90;;;;;;4953997;28;20019;-76